createdAt,value
2018-08-06T00:00:10.226Z,2.20
2018-08-06T00:02:38.814Z,2.30
2018-08-06T00:05:07.609Z,3.03
2018-08-06T00:07:36.254Z,3.73
2018-08-06T00:10:07.369Z,3.33
2018-08-06T00:12:35.993Z,2.73
2018-08-06T00:15:06.500Z,4.97
2018-08-06T00:17:35.210Z,2.70
2018-08-06T00:20:04.298Z,3.47
2018-08-06T00:22:32.911Z,2.43
2018-08-06T00:25:01.570Z,3.00
2018-08-06T00:27:30.212Z,2.67
2018-08-06T00:29:58.917Z,2.73
2018-08-06T00:32:27.594Z,3.10
2018-08-06T00:34:56.298Z,3.50
2018-08-06T00:37:24.889Z,3.33
2018-08-06T00:39:53.846Z,2.50
2018-08-06T00:42:22.590Z,3.17
2018-08-06T00:44:51.246Z,2.70
2018-08-06T00:47:19.903Z,6.33
2018-08-06T00:49:48.540Z,3.03
2018-08-06T00:52:17.181Z,2.47
2018-08-06T00:54:45.851Z,3.87
2018-08-06T00:57:14.572Z,3.10
2018-08-06T00:59:43.360Z,2.40
2018-08-06T01:02:12.034Z,2.30
2018-08-06T01:04:40.707Z,2.03
2018-08-06T01:07:09.426Z,2.47
2018-08-06T01:09:38.045Z,2.50
2018-08-06T01:12:06.815Z,2.90
2018-08-06T01:14:35.559Z,2.70
2018-08-06T01:17:04.225Z,2.37
2018-08-06T01:19:32.903Z,2.47
2018-08-06T01:22:01.544Z,2.20
2018-08-06T01:24:30.166Z,2.63
2018-08-06T01:26:58.863Z,2.60
2018-08-06T01:29:27.573Z,2.90
2018-08-06T01:31:56.171Z,2.90
2018-08-06T01:34:24.871Z,2.47
2018-08-06T01:36:53.529Z,2.80
2018-08-06T01:39:22.190Z,3.20
2018-08-06T01:41:50.850Z,2.83
2018-08-06T01:44:19.462Z,3.10
2018-08-06T01:46:48.047Z,2.83
2018-08-06T01:49:16.551Z,2.77
2018-08-06T01:51:45.202Z,2.43
2018-08-06T01:54:13.947Z,2.77
2018-08-06T01:56:42.585Z,2.60
2018-08-06T01:59:11.255Z,2.80
2018-08-06T02:01:39.812Z,2.90
2018-08-06T02:04:08.411Z,2.70
2018-08-06T02:06:37.071Z,2.73
2018-08-06T02:09:07.307Z,3.13
2018-08-06T02:11:36.034Z,4.97
2018-08-06T02:14:04.973Z,2.77
2018-08-06T02:16:33.750Z,2.90
2018-08-06T02:19:02.411Z,3.00
2018-08-06T02:21:31.079Z,2.97
2018-08-06T02:23:59.709Z,2.97
2018-08-06T02:26:28.349Z,3.20
2018-08-06T02:28:57.049Z,3.10
2018-08-06T02:31:25.803Z,3.10
2018-08-06T02:33:54.527Z,2.80
2018-08-06T02:36:23.087Z,4.00
2018-08-06T02:38:51.641Z,3.23
2018-08-06T02:41:20.314Z,2.87
2018-08-06T02:43:49.035Z,6.50
2018-08-06T02:46:17.678Z,3.03
2018-08-06T02:48:46.216Z,2.90
2018-08-06T02:51:14.819Z,2.90
2018-08-06T02:53:43.443Z,3.07
2018-08-06T02:56:12.074Z,4.67
2018-08-06T02:58:40.731Z,2.90
2018-08-06T03:01:09.336Z,3.23
2018-08-06T03:03:37.951Z,3.43
2018-08-06T03:06:07.192Z,2.83
2018-08-06T03:08:35.779Z,2.80
2018-08-06T03:11:04.478Z,4.43
2018-08-06T03:13:33.166Z,3.03
2018-08-06T03:16:01.774Z,3.90
2018-08-06T03:18:30.373Z,2.80
2018-08-06T03:20:59.001Z,3.80
2018-08-06T03:23:27.619Z,3.00
2018-08-06T03:25:56.244Z,2.97
2018-08-06T03:28:24.899Z,2.63
2018-08-06T03:30:53.627Z,2.80
2018-08-06T03:33:22.266Z,2.87
2018-08-06T03:35:50.889Z,3.17
2018-08-06T03:38:19.602Z,2.90
2018-08-06T03:40:48.279Z,3.00
2018-08-06T03:43:16.904Z,2.73
2018-08-06T03:45:45.600Z,2.93
2018-08-06T03:48:14.297Z,2.83
2018-08-06T03:50:42.981Z,2.83
2018-08-06T03:53:11.682Z,3.33
2018-08-06T03:55:40.294Z,3.10
2018-08-06T03:58:09.018Z,3.37
2018-08-06T04:00:37.626Z,3.40
2018-08-06T04:03:06.328Z,3.37
2018-08-06T04:05:35.010Z,3.57
2018-08-06T04:08:03.678Z,8.30
2018-08-06T04:10:32.256Z,4.17
2018-08-06T04:13:00.852Z,3.17
2018-08-06T04:15:29.477Z,3.20
2018-08-06T04:17:58.131Z,3.37
2018-08-06T04:20:26.744Z,3.27
2018-08-06T04:22:55.349Z,4.00
2018-08-06T04:25:23.816Z,3.27
2018-08-06T04:27:52.554Z,3.33
2018-08-06T04:30:21.263Z,3.33
2018-08-06T04:32:49.922Z,2.57
2018-08-06T04:35:18.623Z,3.00
2018-08-06T04:37:47.283Z,3.27
2018-08-06T04:40:15.960Z,3.27
2018-08-06T04:42:44.662Z,3.00
2018-08-06T04:45:13.453Z,2.87
2018-08-06T04:47:42.551Z,2.80
2018-08-06T04:50:13.003Z,3.83
2018-08-06T04:52:41.627Z,2.77
2018-08-06T04:55:12.264Z,3.20
2018-08-06T04:57:41.168Z,3.33
2018-08-06T05:00:11.883Z,3.13
2018-08-06T05:02:40.810Z,2.90
2018-08-06T05:05:10.631Z,3.50
2018-08-06T05:07:39.347Z,3.83
2018-08-06T05:10:07.999Z,3.97
2018-08-06T05:12:36.746Z,3.20
2018-08-06T05:15:05.910Z,2.60
2018-08-06T05:17:34.662Z,3.37
2018-08-06T05:20:03.325Z,3.03
2018-08-06T05:22:32.027Z,3.20
2018-08-06T05:25:00.694Z,3.10
2018-08-06T05:27:38.992Z,5.23
2018-08-06T05:30:09.546Z,3.20
2018-08-06T05:32:38.264Z,4.33
2018-08-06T05:35:07.092Z,7.00
2018-08-06T05:37:35.850Z,3.30
2018-08-06T05:40:05.122Z,2.70
2018-08-06T05:42:33.871Z,3.27
2018-08-06T05:45:02.603Z,2.40
2018-08-06T05:47:31.224Z,2.47
2018-08-06T05:49:59.874Z,3.70
2018-08-06T05:52:28.497Z,2.73
2018-08-06T05:54:57.158Z,4.67
2018-08-06T05:57:25.773Z,4.03
2018-08-06T05:59:54.489Z,3.40
2018-08-06T06:02:23.176Z,2.50
2018-08-06T06:04:51.799Z,2.90
2018-08-06T06:07:20.509Z,2.43
2018-08-06T06:09:49.191Z,2.30
2018-08-06T06:12:17.844Z,2.53
2018-08-06T06:14:46.475Z,2.37
2018-08-06T06:17:15.075Z,2.30
2018-08-06T06:19:43.736Z,4.67
2018-08-06T06:22:12.344Z,2.70
2018-08-06T06:24:41.000Z,2.53
2018-08-06T06:27:09.690Z,4.17
2018-08-06T06:29:38.339Z,1.90
2018-08-06T06:32:07.100Z,2.57
2018-08-06T06:34:35.849Z,2.27
2018-08-06T06:37:04.434Z,2.90
2018-08-06T06:39:32.995Z,2.77
2018-08-06T06:42:01.655Z,2.30
2018-08-06T06:44:30.335Z,3.00
2018-08-06T06:46:58.973Z,2.70
2018-08-06T06:49:27.544Z,3.70
2018-08-06T06:51:56.137Z,2.53
2018-08-06T06:54:24.734Z,2.50
2018-08-06T06:56:53.321Z,2.00
2018-08-06T06:59:38.872Z,1.97
2018-08-06T07:02:07.522Z,2.60
2018-08-06T07:04:36.529Z,2.07
2018-08-06T07:07:17.338Z,2.47
2018-08-06T07:09:45.952Z,2.20
2018-08-06T07:12:14.573Z,2.60
2018-08-06T07:14:43.288Z,2.27
2018-08-06T07:17:13.133Z,3.47
2018-08-06T07:19:42.653Z,2.20
2018-08-06T07:22:18.257Z,2.20
2018-08-06T07:24:48.287Z,3.17
2018-08-06T07:27:18.183Z,2.23
2018-08-06T07:29:48.726Z,6.23
2018-08-06T07:32:18.934Z,2.53
2018-08-06T07:34:49.831Z,2.37
2018-08-06T07:37:18.949Z,2.60
2018-08-06T07:39:48.267Z,2.03
2018-08-06T07:42:16.921Z,2.17
2018-08-06T07:44:49.242Z,2.47
2018-08-06T07:47:17.851Z,2.20
2018-08-06T07:49:46.531Z,2.40
2018-08-06T07:52:15.163Z,2.00
2018-08-06T07:54:43.715Z,3.37
2018-08-06T07:57:12.339Z,2.20
2018-08-06T07:59:40.995Z,2.60
2018-08-06T08:02:09.560Z,2.13
2018-08-06T08:04:38.267Z,1.97
2018-08-06T08:07:08.078Z,2.47
2018-08-06T08:09:37.825Z,2.50
2018-08-06T08:12:20.570Z,2.57
2018-08-06T08:14:50.011Z,2.33
2018-08-06T08:17:19.786Z,4.40
2018-08-06T08:20:06.737Z,2.63
2018-08-06T08:22:35.219Z,4.90
2018-08-06T08:25:03.859Z,2.40
2018-08-06T08:27:32.450Z,2.40
2018-08-06T08:30:01.088Z,2.70
2018-08-06T08:32:29.765Z,2.57
2018-08-06T08:34:58.382Z,2.67
2018-08-06T08:37:27.107Z,6.77
2018-08-06T08:39:55.793Z,3.83
2018-08-06T08:42:24.835Z,2.90
2018-08-06T08:44:53.708Z,2.40
2018-08-06T08:47:22.432Z,5.40
2018-08-06T08:49:51.139Z,2.60
2018-08-06T08:52:20.015Z,2.77
2018-08-06T08:54:48.869Z,3.20
2018-08-06T08:57:17.623Z,2.60
2018-08-06T08:59:46.231Z,2.20
2018-08-06T09:02:15.114Z,2.57
2018-08-06T09:04:43.754Z,4.57
2018-08-06T09:07:12.384Z,3.53
2018-08-06T09:09:41.627Z,2.60
2018-08-06T09:12:11.610Z,2.63
2018-08-06T09:14:40.655Z,3.73
2018-08-06T09:17:09.552Z,3.43
2018-08-06T09:19:38.627Z,2.60
2018-08-06T09:22:09.489Z,4.40
2018-08-06T09:24:38.897Z,2.80
2018-08-06T09:27:09.386Z,3.97
2018-08-06T09:29:39.358Z,3.23
2018-08-06T09:32:08.474Z,3.30
2018-08-06T09:34:37.442Z,5.40
2018-08-06T09:37:07.001Z,7.40
2018-08-06T09:39:36.268Z,2.97
2018-08-06T09:42:07.987Z,2.93
2018-08-06T09:44:36.814Z,5.43
2018-08-06T09:47:06.589Z,2.57
2018-08-06T09:49:35.549Z,3.80
2018-08-06T09:52:04.374Z,3.57
2018-08-06T09:54:33.373Z,5.67
2018-08-06T09:57:03.095Z,3.77
2018-08-06T09:59:31.895Z,6.13
2018-08-06T10:02:00.758Z,2.90
2018-08-06T10:04:30.052Z,2.87
2018-08-06T10:07:00.622Z,5.40
2018-08-06T10:09:29.576Z,2.80
2018-08-06T10:11:58.368Z,3.10
2018-08-06T10:14:27.857Z,3.10
2018-08-06T10:16:57.990Z,3.43
2018-08-06T10:19:27.009Z,2.90
2018-08-06T10:21:55.842Z,3.10
2018-08-06T10:24:24.837Z,3.47
2018-08-06T10:26:57.622Z,3.50
2018-08-06T10:29:28.320Z,2.50
2018-08-06T10:31:57.370Z,3.00
2018-08-06T10:34:28.792Z,4.40
2018-08-06T10:36:57.566Z,3.43
2018-08-06T10:39:27.621Z,2.90
2018-08-06T10:41:56.672Z,3.20
2018-08-06T10:44:25.838Z,5.67
2018-08-06T10:46:55.869Z,4.13
2018-08-06T10:49:25.996Z,4.90
2018-08-06T10:52:00.960Z,3.57
2018-08-06T10:54:29.813Z,3.60
2018-08-06T10:56:58.975Z,6.57
2018-08-06T10:59:28.479Z,2.90
2018-08-06T11:01:58.022Z,2.83
2018-08-06T11:04:26.836Z,2.77
2018-08-06T11:06:55.386Z,5.40
2018-08-06T11:09:24.092Z,7.10
2018-08-06T11:11:52.770Z,3.07
2018-08-06T11:14:21.577Z,3.70
2018-08-06T11:16:50.406Z,2.97
2018-08-06T11:19:19.193Z,4.13
2018-08-06T11:21:47.776Z,3.37
2018-08-06T11:24:16.497Z,3.30
2018-08-06T11:26:45.445Z,3.00
2018-08-06T11:29:14.146Z,3.83
2018-08-06T11:31:42.711Z,3.43
2018-08-06T11:34:11.390Z,3.57
2018-08-06T11:36:40.007Z,3.17
2018-08-06T11:39:10.180Z,3.40
2018-08-06T11:41:38.786Z,5.50
2018-08-06T11:44:07.594Z,3.10
2018-08-06T11:46:36.343Z,3.40
2018-08-06T11:49:05.165Z,3.40
2018-08-06T11:51:33.802Z,3.10
2018-08-06T11:54:02.333Z,4.53
2018-08-06T11:56:31.001Z,3.47
2018-08-06T11:59:01.588Z,3.80
2018-08-06T12:01:30.142Z,6.90
2018-08-06T12:03:58.674Z,3.43
2018-08-06T12:06:41.642Z,5.60
2018-08-06T12:09:10.422Z,3.67
2018-08-06T12:11:39.633Z,4.20
2018-08-06T12:14:08.204Z,3.70
2018-08-06T12:16:36.778Z,3.40
2018-08-06T12:19:05.354Z,6.53
2018-08-06T12:21:33.904Z,3.30
2018-08-06T12:24:02.466Z,3.57
2018-08-06T12:26:31.008Z,4.53
2018-08-06T12:28:59.583Z,5.03
2018-08-06T12:31:28.236Z,3.00
2018-08-06T12:33:58.825Z,5.63
2018-08-06T12:36:27.365Z,3.87
2018-08-06T12:39:03.486Z,3.60
2018-08-06T12:41:32.030Z,5.73
2018-08-06T12:44:00.529Z,3.63
2018-08-06T12:46:29.126Z,4.27
2018-08-06T12:48:57.741Z,4.40
2018-08-06T12:51:26.361Z,3.80
2018-08-06T12:53:55.337Z,5.50
2018-08-06T12:56:24.107Z,3.80
2018-08-06T12:58:52.838Z,3.87
2018-08-06T13:01:21.411Z,3.50
2018-08-06T13:03:50.130Z,3.80
2018-08-06T13:06:18.787Z,3.63
2018-08-06T13:08:47.316Z,3.50
2018-08-06T13:11:16.221Z,3.63
2018-08-06T13:13:44.768Z,3.67
2018-08-06T13:16:13.308Z,3.67
2018-08-06T13:18:41.877Z,3.60
2018-08-06T13:21:10.431Z,3.67
2018-08-06T13:23:44.205Z,7.87
2018-08-06T13:26:12.959Z,3.80
2018-08-06T13:28:41.784Z,4.07
2018-08-06T13:31:10.659Z,4.07
2018-08-06T13:33:39.520Z,3.70
2018-08-06T13:36:08.307Z,4.00
2018-08-06T13:38:37.042Z,7.40
2018-08-06T13:41:05.832Z,4.80
2018-08-06T13:43:34.605Z,4.77
2018-08-06T13:46:03.416Z,3.72
2018-08-06T13:48:32.249Z,3.95
2018-08-06T13:51:01.040Z,3.75
2018-08-06T13:53:29.931Z,3.60
2018-08-06T13:55:58.818Z,3.65
2018-08-06T13:58:27.607Z,4.35
2018-08-06T14:00:56.470Z,3.52
2018-08-06T14:03:25.325Z,3.37
2018-08-06T14:05:54.207Z,3.60
2018-08-06T14:08:23.080Z,3.90
2018-08-06T14:10:51.945Z,4.08
2018-08-06T14:13:20.806Z,3.72
2018-08-06T14:15:49.347Z,3.70
2018-08-06T14:18:18.035Z,3.58
2018-08-06T14:20:46.678Z,11.85
2018-08-06T14:23:15.262Z,3.75
2018-08-06T14:25:43.787Z,3.77
2018-08-06T14:28:12.350Z,3.60
2018-08-06T14:30:40.924Z,3.50
2018-08-06T14:33:09.498Z,3.72
2018-08-06T14:35:38.077Z,3.65
2018-08-06T14:38:06.660Z,4.12
2018-08-06T14:40:36.570Z,4.65
2018-08-06T14:43:05.244Z,3.75
2018-08-06T14:45:33.767Z,6.37
2018-08-06T14:48:02.375Z,3.65
2018-08-06T14:50:30.873Z,3.77
2018-08-06T14:52:59.475Z,3.60
2018-08-06T14:55:28.034Z,3.77
2018-08-06T14:57:56.634Z,3.67
2018-08-06T15:00:25.220Z,3.52
2018-08-06T15:02:54.142Z,3.60
2018-08-06T15:05:22.763Z,3.72
2018-08-06T15:07:51.389Z,3.35
2018-08-06T15:10:19.969Z,4.45
2018-08-06T15:12:48.627Z,4.17
2018-08-06T15:15:18.062Z,4.37
2018-08-06T15:17:47.023Z,5.13
2018-08-06T15:20:16.803Z,4.00
2018-08-06T15:22:45.730Z,3.90
2018-08-06T15:25:17.914Z,3.67
2018-08-06T15:27:46.796Z,5.10
2018-08-06T15:30:15.536Z,3.33
2018-08-06T15:32:44.123Z,3.47
2018-08-06T15:35:13.280Z,3.85
2018-08-06T15:37:42.822Z,3.77
2018-08-06T15:40:13.813Z,3.58
2018-08-06T15:42:42.705Z,5.37
2018-08-06T15:45:12.145Z,3.60
2018-08-06T15:47:41.431Z,3.67
2018-08-06T15:50:12.063Z,4.42
2018-08-06T15:52:40.610Z,3.58
2018-08-06T15:55:09.543Z,4.33
2018-08-06T15:57:38.144Z,4.03
2018-08-06T16:00:08.813Z,5.08
2018-08-06T16:02:37.269Z,3.87
2018-08-06T16:05:06.698Z,3.63
2018-08-06T16:07:35.194Z,3.30
2018-08-06T16:10:03.711Z,3.73
2018-08-06T16:12:32.493Z,3.50
2018-08-06T16:15:01.016Z,4.27
2018-08-06T16:17:29.488Z,5.83
2018-08-06T16:19:57.946Z,3.50
2018-08-06T16:22:26.372Z,3.53
2018-08-06T16:24:54.873Z,3.70
2018-08-06T16:27:23.342Z,3.80
2018-08-06T16:29:51.833Z,3.70
2018-08-06T16:32:20.424Z,3.15
2018-08-06T16:34:48.879Z,3.77
2018-08-06T16:37:17.461Z,3.15
2018-08-06T16:39:45.904Z,3.90
2018-08-06T16:42:14.325Z,3.65
2018-08-06T16:44:42.756Z,3.37
2018-08-06T16:47:11.213Z,3.83
2018-08-06T16:49:39.661Z,3.75
2018-08-06T16:52:08.250Z,3.55
2018-08-06T16:54:36.747Z,3.22
2018-08-06T16:57:05.318Z,3.40
2018-08-06T16:59:33.899Z,3.80
2018-08-06T17:02:02.474Z,3.50
2018-08-06T17:04:31.151Z,3.77
2018-08-06T17:06:59.669Z,3.87
2018-08-06T17:09:28.237Z,4.00
2018-08-06T17:11:56.849Z,3.77
2018-08-06T17:14:25.455Z,3.40
2018-08-06T17:16:54.090Z,5.35
2018-08-06T17:19:22.705Z,4.95
2018-08-06T17:21:51.318Z,3.92
2018-08-06T17:24:19.825Z,3.83
2018-08-06T17:26:48.414Z,5.43
2018-08-06T17:29:16.931Z,3.97
2018-08-06T17:31:45.501Z,3.77
2018-08-06T17:34:14.098Z,3.90
2018-08-06T17:36:42.691Z,4.50
2018-08-06T17:39:11.901Z,4.10
2018-08-06T17:41:40.722Z,3.77
2018-08-06T17:44:09.445Z,5.00
2018-08-06T17:46:38.015Z,4.40
2018-08-06T17:49:06.697Z,3.50
2018-08-06T17:51:35.238Z,3.77
2018-08-06T17:54:03.878Z,3.73
2018-08-06T17:56:32.502Z,3.70
2018-08-06T17:59:01.008Z,3.17
2018-08-06T18:01:29.611Z,3.67
2018-08-06T18:03:58.167Z,3.63
2018-08-06T18:06:26.702Z,3.67
2018-08-06T18:08:55.306Z,4.00
2018-08-06T18:11:23.924Z,5.13
2018-08-06T18:13:52.454Z,4.00
2018-08-06T18:16:21.091Z,3.83
2018-08-06T18:18:49.724Z,4.43
2018-08-06T18:21:18.309Z,3.90
2018-08-06T18:23:46.902Z,4.80
2018-08-06T18:26:15.508Z,3.80
2018-08-06T18:28:44.124Z,4.03
2018-08-06T18:31:12.787Z,5.37
2018-08-06T18:33:41.370Z,4.70
2018-08-06T18:36:09.983Z,5.60
2018-08-06T18:38:38.586Z,6.07
2018-08-06T18:41:07.189Z,4.17
2018-08-06T18:43:35.742Z,4.13
2018-08-06T18:46:04.357Z,4.60
2018-08-06T18:48:32.987Z,5.03
2018-08-06T18:51:01.623Z,4.40
2018-08-06T18:53:30.230Z,4.27
2018-08-06T18:55:58.904Z,4.50
2018-08-06T18:58:27.518Z,4.90
2018-08-06T19:00:56.096Z,5.07
2018-08-06T19:03:24.781Z,5.10
2018-08-06T19:05:53.375Z,4.77
2018-08-06T19:08:21.985Z,4.93
2018-08-06T19:10:50.506Z,5.63
2018-08-06T19:13:24.349Z,4.93
2018-08-06T19:15:52.955Z,4.60
2018-08-06T19:18:26.911Z,8.43
2018-08-06T19:20:55.523Z,4.70
2018-08-06T19:23:24.171Z,4.30
2018-08-06T19:25:52.807Z,5.07
2018-08-06T19:28:21.425Z,7.83
2018-08-06T19:30:55.190Z,9.00
2018-08-06T19:33:23.767Z,5.43
2018-08-06T19:35:52.422Z,5.13
2018-08-06T19:38:21.119Z,5.50
2018-08-06T19:40:49.691Z,5.23
2018-08-06T19:43:23.393Z,6.83
2018-08-06T19:46:00.786Z,6.07
2018-08-06T19:48:29.480Z,7.10
2018-08-06T19:50:58.077Z,5.97
2018-08-06T19:53:26.761Z,6.33
2018-08-06T19:56:00.512Z,5.57
2018-08-06T19:58:29.062Z,7.07
2018-08-06T20:00:57.689Z,5.30
2018-08-06T20:03:26.342Z,5.23
2018-08-06T20:05:54.897Z,5.57
2018-08-06T20:08:23.474Z,5.37
2018-08-06T20:10:52.259Z,5.90
2018-08-06T20:13:20.943Z,4.97
2018-08-06T20:15:49.572Z,7.20
2018-08-06T20:18:18.275Z,5.70
2018-08-06T20:20:46.867Z,5.43
2018-08-06T20:23:15.717Z,5.70
2018-08-06T20:25:44.364Z,5.20
2018-08-06T20:28:13.042Z,5.40
2018-08-06T20:30:41.719Z,5.60
2018-08-06T20:33:10.375Z,6.17
2018-08-06T20:35:39.015Z,8.37
2018-08-06T20:38:07.734Z,5.23
2018-08-06T20:40:36.400Z,5.43
2018-08-06T20:43:04.973Z,5.67
2018-08-06T20:45:33.601Z,5.80
2018-08-06T20:48:02.313Z,5.13
2018-08-06T20:50:30.888Z,7.17
2018-08-06T20:52:59.612Z,5.47
2018-08-06T20:55:28.186Z,5.37
2018-08-06T20:57:56.759Z,6.73
2018-08-06T21:00:26.158Z,10.83
2018-08-06T21:02:54.928Z,5.83
2018-08-06T21:05:23.468Z,6.17
2018-08-06T21:07:51.998Z,5.57
2018-08-06T21:10:21.071Z,6.00
2018-08-06T21:12:49.986Z,5.80
2018-08-06T21:15:18.777Z,5.47
2018-08-06T21:17:47.402Z,5.57
2018-08-06T21:20:18.235Z,5.97
2018-08-06T21:22:48.019Z,6.57
2018-08-06T21:25:16.909Z,5.47
2018-08-06T21:27:46.706Z,5.83
2018-08-06T21:30:16.893Z,5.87
2018-08-06T21:32:50.408Z,7.53
2018-08-06T21:35:20.088Z,8.27
2018-08-06T21:37:49.844Z,6.03
2018-08-06T21:40:19.146Z,5.60
2018-08-06T21:42:48.106Z,9.73
2018-08-06T21:45:16.832Z,5.87
2018-08-06T21:47:45.598Z,5.87
2018-08-06T21:50:14.748Z,6.87
2018-08-06T21:52:43.377Z,5.80
2018-08-06T21:55:12.206Z,6.70
2018-08-06T21:57:40.854Z,6.97
2018-08-06T22:00:19.347Z,7.40
2018-08-06T22:02:47.870Z,6.97
2018-08-06T22:05:16.491Z,9.57
2018-08-06T22:07:45.174Z,6.23
2018-08-06T22:10:13.951Z,6.27
2018-08-06T22:12:42.572Z,6.27
2018-08-06T22:15:11.270Z,7.53
2018-08-06T22:17:39.874Z,8.47
2018-08-06T22:20:08.426Z,6.30
2018-08-06T22:22:37.030Z,6.47
2018-08-06T22:25:05.711Z,5.97
2018-08-06T22:27:34.394Z,6.47
2018-08-06T22:30:03.066Z,6.27
2018-08-06T22:32:31.721Z,6.33
2018-08-06T22:35:00.371Z,5.80
2018-08-06T22:37:29.024Z,7.00
2018-08-06T22:39:57.593Z,6.90
2018-08-06T22:42:26.261Z,6.67
2018-08-06T22:44:54.878Z,5.80
2018-08-06T22:47:23.473Z,6.10
2018-08-06T22:49:52.103Z,7.13
2018-08-06T22:52:20.736Z,7.87
2018-08-06T22:54:49.502Z,7.43
2018-08-06T22:57:18.207Z,7.20
2018-08-06T22:59:46.827Z,6.97
2018-08-06T23:02:15.392Z,6.80
2018-08-06T23:04:44.090Z,7.07
2018-08-06T23:07:12.730Z,8.70
2018-08-06T23:09:41.296Z,6.60
2018-08-06T23:12:10.004Z,6.40
2018-08-06T23:14:38.565Z,6.83
2018-08-06T23:17:07.216Z,6.53
2018-08-06T23:19:35.848Z,7.00
2018-08-06T23:22:04.541Z,7.30
2018-08-06T23:24:33.094Z,8.27
2018-08-06T23:27:01.734Z,6.13
2018-08-06T23:29:30.345Z,7.73
2018-08-06T23:31:58.995Z,8.60
2018-08-06T23:34:27.562Z,7.40
2018-08-06T23:36:56.155Z,6.93
2018-08-06T23:39:24.762Z,6.80
2018-08-06T23:41:53.365Z,7.23
2018-08-06T23:44:21.983Z,7.50
2018-08-06T23:46:50.585Z,7.03
2018-08-06T23:49:19.279Z,7.13
2018-08-06T23:51:47.893Z,7.17
2018-08-06T23:54:16.539Z,7.77
2018-08-06T23:56:45.116Z,7.70
2018-08-06T23:59:13.767Z,7.87
